Time;durP1;ratioP1;P1;durP2;ratioP2;P2;SDS_P1;SDS_P2;PMS_P1;PMS_P2;Temp;Humidity;BMP_temperature;BMP_pressure;BME280_temperature;BME280_humidity;BME280_pressure;Samples;Min_cycle;Max_cycle;Signal;HPM_P1;HPM_P2
2022/08/08 00:01:09;;;;;;;7.25;4.95;;;;;;;13.93;79.84;102585.97;4788019;29;20052;-72
2022/08/08 00:03:51;;;;;;;5.32;4.82;;;;;;;13.88;79.48;102589.88;4787945;29;20051;-72
2022/08/08 00:06:39;;;;;;;5.18;4.78;;;;;;;13.83;79.49;102586.94;4788120;29;20051;-72
2022/08/08 00:09:24;;;;;;;4.60;4.20;;;;;;;13.79;78.98;102584.34;4787641;29;20052;-72
2022/08/08 00:12:02;;;;;;;5.78;4.50;;;;;;;13.74;78.83;102586.75;4787635;29;20118;-72
2022/08/08 00:15:01;;;;;;;5.22;4.68;;;;;;;13.74;78.56;102584.84;4787846;29;20127;-72
2022/08/08 00:17:41;;;;;;;5.20;4.65;;;;;;;13.71;79.24;102587.59;4787368;29;20087;-72
2022/08/08 00:20:27;;;;;;;4.70;4.38;;;;;;;13.68;79.94;102586.50;4787701;29;20050;-72
2022/08/08 00:23:01;;;;;;;5.90;4.50;;;;;;;13.66;80.29;102583.47;4787630;29;20055;-72
2022/08/08 00:25:42;;;;;;;5.85;5.00;;;;;;;13.60;80.01;102580.53;4787608;29;20056;-72
2022/08/08 00:28:24;;;;;;;5.60;5.10;;;;;;;13.55;79.79;102577.63;4787517;29;20082;-72
2022/08/08 00:31:27;;;;;;;5.95;5.05;;;;;;;13.52;79.72;102568.50;4787606;29;20039;-72
2022/08/08 00:37:30;;;;;;;5.38;4.90;;;;;;;13.48;80.41;102581.22;4787565;29;20121;-72
2022/08/08 00:40:37;;;;;;;7.35;4.97;;;;;;;13.46;80.58;102575.53;4785552;29;20541;-72
2022/08/08 00:43:58;;;;;;;6.85;5.43;;;;;;;13.36;80.75;102565.78;4786673;29;20139;-72
2022/08/08 00:47:02;;;;;;;5.85;4.68;;;;;;;13.32;80.20;102567.78;4786897;29;20109;-72
2022/08/08 00:49:49;;;;;;;5.45;4.93;;;;;;;13.28;80.89;102565.19;4782276;29;20538;-72
2022/08/08 00:52:41;;;;;;;8.85;5.05;;;;;;;13.24;81.20;102558.41;4785700;29;20087;-72
2022/08/08 00:56:05;;;;;;;5.53;5.03;;;;;;;13.20;80.31;102563.81;4785933;29;20060;-72
2022/08/08 00:58:41;;;;;;;5.68;5.18;;;;;;;13.15;80.79;102566.97;4785471;29;20085;-72
2022/08/08 01:01:48;;;;;;;4.82;4.43;;;;;;;13.11;81.04;102565.53;4800824;29;20060;-72
2022/08/08 01:05:02;;;;;;;5.30;4.80;;;;;;;13.11;80.49;102576.22;4751483;29;20400;-72
2022/08/08 01:08:15;;;;;;;7.88;5.47;;;;;;;13.06;80.88;102568.69;4751559;30;20052;-72
2022/08/08 01:11:00;;;;;;;5.75;4.60;;;;;;;13.01;80.67;102576.00;4730311;30;20467;-72
2022/08/08 01:14:03;;;;;;;5.65;5.15;;;;;;;12.95;81.76;102568.88;4716106;30;20826;-72
2022/08/08 01:17:07;;;;;;;6.00;5.40;;;;;;;12.89;81.89;102571.28;4716367;30;20219;-72
2022/08/08 01:20:02;;;;;;;6.25;5.60;;;;;;;12.88;81.57;102566.34;4730897;30;20134;-72
2022/08/08 01:23:04;;;;;;;6.03;5.43;;;;;;;12.82;82.10;102571.41;4730898;30;20061;-72
2022/08/08 01:26:04;;;;;;;5.57;5.18;;;;;;;12.82;81.77;102570.66;4715956;30;20514;-72
2022/08/08 01:29:02;;;;;;;5.53;5.03;;;;;;;12.81;82.09;102571.81;4715916;30;20116;-72
2022/08/08 01:32:10;;;;;;;5.60;4.85;;;;;;;12.70;82.04;102572.03;4730952;30;20053;-72
2022/08/08 01:34:50;;;;;;;5.60;5.10;;;;;;;12.65;82.06;102577.84;4712650;30;20065;-72
2022/08/08 01:37:52;;;;;;;7.20;5.30;;;;;;;12.61;82.45;102575.22;4713896;30;20057;-72
2022/08/08 01:41:19;;;;;;;7.03;4.97;;;;;;;12.59;82.80;102561.53;4714915;30;20063;-71
2022/08/08 01:44:16;;;;;;;7.15;5.13;;;;;;;12.57;83.16;102574.53;4725510;30;20065;-71
2022/08/08 01:47:32;;;;;;;6.75;4.97;;;;;;;12.47;83.15;102572.78;4759858;29;20052;-71
2022/08/08 01:50:48;;;;;;;5.40;4.90;;;;;;;12.46;82.96;102573.19;4784297;29;20554;-71
2022/08/08 01:53:44;;;;;;;6.03;5.53;;;;;;;12.44;83.93;102572.84;4761690;29;20075;-71
2022/08/08 01:56:57;;;;;;;6.55;5.30;;;;;;;12.43;83.53;102574.00;4784074;29;20066;-71
2022/08/08 01:59:46;;;;;;;5.03;4.72;;;;;;;12.39;82.88;102574.09;4768463;29;20517;-71
2022/08/08 02:03:03;;;;;;;5.18;4.78;;;;;;;12.38;82.36;102572.59;4782790;29;20064;-71
2022/08/08 02:05:59;;;;;;;4.97;4.57;;;;;;;12.38;82.29;102574.50;4768468;29;20056;-71
2022/08/08 02:08:46;;;;;;;5.53;4.85;;;;;;;12.30;82.85;102566.59;4768348;29;20064;-71
2022/08/08 02:11:30;;;;;;;6.10;5.15;;;;;;;12.29;82.57;102562.44;4768588;29;20655;-71
2022/08/08 02:14:40;;;;;;;5.57;5.10;;;;;;;12.25;82.67;102567.06;4768828;29;20060;-71
2022/08/08 02:17:31;;;;;;;4.95;4.55;;;;;;;12.22;83.42;102575.13;4768478;29;20117;-71
2022/08/08 02:23:54;;;;;;;4.65;4.22;;;;;;;12.20;82.66;102574.78;4782964;29;20055;-71
2022/08/08 02:26:31;;;;;;;5.07;4.63;;;;;;;12.16;83.09;102577.50;4776862;29;20056;-71
2022/08/08 02:29:35;;;;;;;5.75;4.80;;;;;;;12.13;83.09;102572.97;4751649;30;20048;-71
2022/08/08 02:32:41;;;;;;;4.57;4.28;;;;;;;12.13;82.81;102570.31;4766597;30;20048;-71
2022/08/08 02:35:41;;;;;;;5.07;4.57;;;;;;;12.12;82.85;102576.06;4766231;30;20554;-71
2022/08/08 02:38:46;;;;;;;5.30;4.90;;;;;;;12.10;82.53;102576.47;4765840;30;20079;-71
2022/08/08 02:41:34;;;;;;;4.97;4.47;;;;;;;12.07;83.03;102577.25;4766544;30;20490;-71
2022/08/08 02:44:41;;;;;;;6.05;5.10;;;;;;;12.04;83.75;102570.06;4766542;30;20399;-71
2022/08/08 02:48:14;;;;;;;5.10;4.70;;;;;;;12.03;82.54;102568.56;4767697;29;20063;-71
2022/08/08 02:51:11;;;;;;;5.78;4.85;;;;;;;12.00;82.30;102575.44;4751398;30;20060;-71
2022/08/08 02:53:46;;;;;;;4.85;4.45;;;;;;;11.99;83.45;102571.31;4780998;29;20485;-71
2022/08/08 02:56:54;;;;;;;5.15;4.72;;;;;;;11.98;82.85;102574.38;4766264;30;20118;-71
2022/08/08 02:59:48;;;;;;;6.43;4.63;;;;;;;11.90;83.24;102571.06;4751308;30;20060;-71
2022/08/08 03:02:55;;;;;;;4.68;4.38;;;;;;;11.87;83.52;102569.19;4766134;30;20076;-71
2022/08/08 03:05:46;;;;;;;6.65;5.05;;;;;;;11.83;83.24;102571.16;4766038;30;20063;-71
2022/08/08 03:08:44;;;;;;;4.97;4.47;;;;;;;11.78;83.31;102571.59;4765884;30;20060;-71
2022/08/08 03:11:33;;;;;;;5.30;4.90;;;;;;;11.78;83.78;102578.84;4766268;30;20052;-71
2022/08/08 03:15:04;;;;;;;4.78;4.38;;;;;;;11.78;82.84;102579.59;4767499;30;20052;-71
2022/08/08 03:18:04;;;;;;;5.07;4.38;;;;;;;11.77;83.10;102580.00;4771967;29;20113;-71
2022/08/08 03:20:48;;;;;;;4.72;4.32;;;;;;;11.76;83.24;102583.81;4767396;29;20056;-72
2022/08/08 03:23:24;;;;;;;5.15;4.72;;;;;;;11.68;84.47;102588.47;4768872;29;20497;-71
2022/08/08 03:26:06;;;;;;;5.20;4.80;;;;;;;11.62;84.46;102590.84;4770953;29;20078;-71
2022/08/08 03:28:43;;;;;;;5.00;4.65;;;;;;;11.61;84.58;102594.66;4785854;29;20506;-71
2022/08/08 03:34:16;;;;;;;5.38;4.82;;;;;;;11.59;84.95;102596.25;4786355;29;20087;-71
2022/08/08 03:36:43;;;;;;;4.70;4.40;;;;;;;11.58;85.50;102594.72;4785165;29;20514;-71
2022/08/08 03:39:13;;;;;;;5.40;5.00;;;;;;;11.57;85.57;102591.31;4770564;29;20063;-72
2022/08/08 03:41:44;;;;;;;7.90;4.88;;;;;;;11.56;85.27;102584.47;4770697;29;20265;-71
2022/08/08 03:44:35;;;;;;;4.27;4.00;;;;;;;11.57;85.28;102593.22;4770725;29;20055;-72
2022/08/08 03:47:06;;;;;;;5.15;4.75;;;;;;;11.57;85.58;102599.31;4770703;29;20079;-71
2022/08/08 03:49:48;;;;;;;5.13;4.72;;;;;;;11.54;85.68;102605.44;4768075;30;20155;-71
2022/08/08 03:52:32;;;;;;;5.72;5.05;;;;;;;11.51;85.92;102598.25;4768614;30;20062;-71
2022/08/08 03:55:09;;;;;;;7.13;4.97;;;;;;;11.50;86.09;102604.72;4768696;29;20114;-71
2022/08/08 03:57:56;;;;;;;4.55;4.30;;;;;;;11.47;85.58;102599.44;4753596;30;20089;-71
2022/08/08 04:00:48;;;;;;;6.10;4.72;;;;;;;11.46;85.52;102603.25;4769759;30;20500;-72
2022/08/08 04:03:35;;;;;;;5.07;4.57;;;;;;;11.44;85.63;102614.31;4768064;30;20055;-71
2022/08/08 04:06:23;;;;;;;5.75;5.18;;;;;;;11.47;86.31;102616.19;4767262;30;20147;-72
2022/08/08 04:09:00;;;;;;;5.38;4.57;;;;;;;11.46;86.83;102620.03;4768090;30;20491;-72
2022/08/08 04:11:42;;;;;;;4.68;4.28;;;;;;;11.45;86.72;102621.19;4752967;30;20063;-71
2022/08/08 04:14:25;;;;;;;4.97;4.57;;;;;;;11.47;87.45;102624.19;4768125;30;20048;-72
2022/08/08 04:17:03;;;;;;;4.57;4.28;;;;;;;11.47;87.34;102621.53;4782766;29;20056;-72
2022/08/08 04:19:48;;;;;;;4.95;4.47;;;;;;;11.48;86.88;102628.38;4768033;30;20068;-72
2022/08/08 04:22:18;;;;;;;5.72;4.55;;;;;;;11.50;86.87;102630.66;4768643;30;20052;-72
2022/08/08 04:24:50;;;;;;;4.03;3.78;;;;;;;11.48;86.86;102622.28;4768304;30;20056;-71
2022/08/08 04:27:17;;;;;;;4.57;4.18;;;;;;;11.47;86.83;102624.19;4769369;30;20139;-72
2022/08/08 04:30:05;;;;;;;4.88;4.47;;;;;;;11.49;86.69;102621.88;4768036;30;20060;-71
2022/08/08 04:32:46;;;;;;;;;;;;;;;11.54;85.83;102631.38;4770459;30;20110;-71
2022/08/08 04:35:18;;;;;;;4.72;4.07;;;;;;;11.56;86.99;102637.06;4766922;30;20400;-70
2022/08/08 04:37:51;;;;;;;4.28;3.92;;;;;;;11.56;87.23;102629.81;4767835;30;20059;-71
2022/08/08 04:40:21;;;;;;;4.78;4.43;;;;;;;11.59;86.88;102634.34;4768078;30;20479;-72
2022/08/08 04:42:52;;;;;;;7.03;4.05;;;;;;;11.63;87.15;102636.94;4753190;30;20530;-71
2022/08/08 04:45:27;;;;;;;4.43;4.13;;;;;;;11.65;87.35;102640.72;4767884;30;20596;-72
2022/08/08 04:47:57;;;;;;;4.72;4.43;;;;;;;11.68;86.95;102641.84;4767478;30;20060;-73
2022/08/08 04:50:26;;;;;;;7.43;4.65;;;;;;;11.70;86.88;102640.28;4767723;30;20056;-73
2022/08/08 04:53:04;;;;;;;5.03;4.53;;;;;;;11.75;86.45;102649.75;4767693;30;20052;-72
2022/08/08 04:55:51;;;;;;;4.88;4.03;;;;;;;11.77;86.29;102636.78;4767864;29;20072;-72
2022/08/08 04:58:25;;;;;;;3.83;3.63;;;;;;;11.78;86.03;102638.31;4767661;30;20064;-72
2022/08/08 05:00:52;;;;;;;4.35;3.95;;;;;;;11.84;85.88;102644.72;4781890;29;20154;-72
2022/08/08 05:03:19;;;;;;;5.47;4.63;;;;;;;11.89;85.43;102644.25;4752574;30;20064;-73
2022/08/08 05:06:06;;;;;;;4.43;4.07;;;;;;;11.94;85.85;102645.72;4767643;30;20113;-73
2022/08/08 05:08:45;;;;;;;4.40;4.10;;;;;;;12.13;86.25;102644.31;4752586;30;20056;-75
2022/08/08 05:11:20;;;;;;;4.50;4.00;;;;;;;13.54;81.43;102643.78;4767531;30;20580;-73
2022/08/08 05:13:52;;;;;;;4.95;4.55;;;;;;;14.33;76.38;102650.81;4782388;29;20056;-73
2022/08/08 05:16:29;;;;;;;7.43;4.63;;;;;;;13.80;77.66;102655.44;4767341;30;20064;-74
2022/08/08 05:19:16;;;;;;;4.18;3.88;;;;;;;15.27;74.12;102656.81;4767632;30;20141;-73
2022/08/08 05:22:05;;;;;;;5.80;4.60;;;;;;;17.20;66.64;102662.28;4778846;29;20056;-76
2022/08/08 05:24:33;;;;;;;4.72;4.32;;;;;;;18.36;61.42;102664.44;4767085;30;20062;-76
2022/08/08 05:27:04;;;;;;;4.25;3.80;;;;;;;19.43;57.98;102668.72;4752431;30;20056;-75
2022/08/08 05:29:34;;;;;;;4.82;4.50;;;;;;;20.28;55.50;102666.72;4752261;30;20563;-76
2022/08/08 05:32:06;;;;;;;7.22;4.82;;;;;;;21.05;52.80;102665.94;4766501;30;20057;-75
2022/08/08 05:34:40;;;;;;;6.40;4.60;;;;;;;21.55;51.64;102661.38;4766464;30;20060;-76
2022/08/08 05:37:07;;;;;;;4.50;4.07;;;;;;;21.86;50.24;102656.16;4767255;30;20114;-76
2022/08/08 05:39:50;;;;;;;5.22;4.10;;;;;;;22.50;49.56;102662.59;4767360;30;20052;-75
2022/08/08 05:42:38;;;;;;;4.60;4.20;;;;;;;22.42;49.60;102670.41;4767244;30;20415;-73
2022/08/08 05:45:06;;;;;;;6.97;5.75;;;;;;;20.29;55.05;102668.94;4777182;29;20052;-73
2022/08/08 05:47:52;;;;;;;5.80;5.40;;;;;;;18.85;59.67;102677.81;4765602;30;20052;-73
2022/08/08 05:50:28;;;;;;;18.05;6.07;;;;;;;18.97;60.85;102681.56;4767008;30;20534;-74
2022/08/08 05:52:59;;;;;;;7.10;6.07;;;;;;;18.41;63.42;102673.88;4781965;29;20098;-72
2022/08/08 05:55:47;;;;;;;8.73;6.40;;;;;;;19.38;62.37;102677.44;4767158;30;20076;-70
2022/08/08 05:58:38;;;;;;;9.32;6.78;;;;;;;20.97;57.60;102673.69;4781884;29;20063;-71
2022/08/08 06:01:25;;;;;;;11.40;6.63;;;;;;;21.62;55.93;102675.25;4772622;29;20122;-71
2022/08/08 06:04:13;;;;;;;7.30;6.03;;;;;;;22.68;53.44;102675.88;4766791;30;20198;-70
2022/08/08 06:06:58;;;;;;;7.20;6.47;;;;;;;23.01;52.53;102683.63;4766810;30;20064;-70
2022/08/08 06:09:33;;;;;;;10.13;5.70;;;;;;;23.18;51.59;102681.09;4766556;30;20435;-71
2022/08/08 06:12:21;;;;;;;6.20;5.28;;;;;;;23.19;51.26;102685.28;4766734;30;20462;-71
2022/08/08 06:15:00;;;;;;;6.55;5.45;;;;;;;23.10;51.60;102680.75;4766021;30;20064;-71
2022/08/08 06:17:33;;;;;;;7.20;6.05;;;;;;;22.94;52.62;102682.09;4774269;29;20125;-72
2022/08/08 06:20:20;;;;;;;8.88;5.50;;;;;;;22.82;52.96;102680.47;4766932;30;20634;-72
2022/08/08 06:22:49;;;;;;;5.97;5.47;;;;;;;22.73;53.47;102680.63;4766619;30;20063;-71
2022/08/08 06:25:18;;;;;;;7.72;5.00;;;;;;;22.45;54.02;102680.31;4766765;30;20067;-72
2022/08/08 06:28:13;;;;;;;5.95;5.45;;;;;;;22.22;55.79;102684.00;4751623;30;20079;-70
2022/08/08 06:30:43;;;;;;;10.63;5.13;;;;;;;21.81;56.41;102691.31;4780902;29;20126;-70
2022/08/08 06:33:11;;;;;;;5.00;4.50;;;;;;;21.64;57.20;102693.75;4766464;30;20060;-72
2022/08/08 06:35:51;;;;;;;6.47;4.35;;;;;;;21.68;57.33;102696.28;4765826;30;20542;-71
2022/08/08 06:38:36;;;;;;;4.63;4.32;;;;;;;21.53;57.60;102690.91;4751142;30;20137;-71
2022/08/08 06:41:11;;;;;;;4.57;3.83;;;;;;;21.51;57.48;102693.34;4781321;29;20486;-72
2022/08/08 06:43:46;;;;;;;4.22;3.92;;;;;;;21.25;58.23;102691.19;4767393;29;20053;-72
2022/08/08 06:46:26;;;;;;;9.30;3.83;;;;;;;21.27;58.65;102696.13;4766362;30;20057;-72
2022/08/08 06:48:56;;;;;;;6.60;2.60;;;;;;;21.17;57.46;102689.31;4751164;30;20070;-72
2022/08/08 06:51:25;;;;;;;2.70;2.50;;;;;;;21.11;57.37;102685.75;4766192;30;20091;-74
2022/08/08 06:54:14;;;;;;;7.55;3.42;;;;;;;21.07;57.18;102691.34;4766531;29;20080;-73
2022/08/08 06:56:44;;;;;;;3.90;2.90;;;;;;;21.06;56.97;102697.22;4765930;30;20064;-75
2022/08/08 06:59:17;;;;;;;4.65;2.92;;;;;;;21.07;57.34;102690.59;4783042;29;20567;-74
2022/08/08 07:02:03;;;;;;;3.33;2.45;;;;;;;21.09;57.79;102691.63;4754784;30;20080;-74
2022/08/08 07:05:01;;;;;;;3.83;2.80;;;;;;;21.09;57.36;102699.75;4768920;30;20055;-72
2022/08/08 07:07:51;;;;;;;6.03;3.08;;;;;;;21.16;56.94;102707.50;4769309;30;20102;-73
2022/08/08 07:10:24;;;;;;;2.95;2.25;;;;;;;21.12;56.94;102706.19;4769119;30;20063;-72
2022/08/08 07:13:08;;;;;;;3.42;2.20;;;;;;;21.20;56.50;102701.88;4753771;30;20064;-73
2022/08/08 07:15:43;;;;;;;5.55;2.08;;;;;;;21.26;55.87;102706.22;4769109;30;20111;-73
2022/08/08 07:18:59;;;;;;;6.25;2.30;;;;;;;21.42;56.47;102712.38;4768956;30;20570;-73
2022/08/08 07:21:54;;;;;;;4.28;2.63;;;;;;;21.50;56.00;102710.81;4769052;29;20086;-73
2022/08/08 07:24:34;;;;;;;3.70;2.30;;;;;;;21.66;55.34;102714.97;4768745;30;20151;-73
2022/08/08 07:27:05;;;;;;;2.78;2.00;;;;;;;21.63;55.67;102709.28;4754002;30;20148;-75
2022/08/08 07:29:38;;;;;;;4.32;2.50;;;;;;;21.81;56.34;102719.16;4768851;30;20052;-74
2022/08/08 07:32:26;;;;;;;3.03;2.40;;;;;;;21.64;56.18;102718.91;4754203;30;20452;-73
2022/08/08 07:34:58;;;;;;;3.45;2.40;;;;;;;21.69;56.89;102717.50;4768205;30;20143;-75
2022/08/08 07:37:35;;;;;;;3.67;2.17;;;;;;;21.83;56.55;102727.56;4783666;29;20056;-73
2022/08/08 07:40:28;;;;;;;4.88;2.33;;;;;;;22.20;55.79;102721.69;4768815;30;20143;-72
2022/08/08 07:43:03;;;;;;;5.20;2.50;;;;;;;22.40;54.64;102726.38;4768214;30;20148;-73
2022/08/08 07:45:42;;;;;;;5.60;2.50;;;;;;;22.22;55.39;102727.41;4755107;30;20056;-73
2022/08/08 07:48:29;;;;;;;2.28;2.00;;;;;;;22.25;55.17;102727.19;4768455;30;20499;-73
2022/08/08 07:50:59;;;;;;;7.32;2.30;;;;;;;22.59;54.76;102720.22;4768659;30;20060;-74
2022/08/08 07:53:33;;;;;;;4.15;2.20;;;;;;;22.68;54.56;102715.88;4768586;30;20060;-74
2022/08/08 07:56:24;;;;;;;4.38;2.22;;;;;;;22.85;53.02;102722.22;4768226;30;20048;-71
2022/08/08 07:59:13;;;;;;;4.15;2.53;;;;;;;22.89;53.29;102730.91;4768444;30;20155;-73
2022/08/08 08:01:59;;;;;;;3.13;2.40;;;;;;;23.03;52.17;102727.34;4753514;30;20122;-74
2022/08/08 08:04:54;;;;;;;5.05;2.63;;;;;;;23.14;51.72;102732.91;4768709;30;20180;-74
2022/08/08 08:07:25;;;;;;;4.93;2.10;;;;;;;23.16;52.87;102735.88;4783415;29;20056;-73
2022/08/08 08:10:03;;;;;;;5.18;2.25;;;;;;;23.38;52.01;102735.34;4766844;30;20052;-73
2022/08/08 08:12:34;;;;;;;4.93;2.47;;;;;;;23.37;52.24;102733.84;4767151;30;20118;-73
2022/08/08 08:15:11;;;;;;;5.60;1.92;;;;;;;23.53;51.26;102738.69;4753504;30;20052;-73
2022/08/08 08:17:41;;;;;;;;;;;;;;;23.82;51.78;102736.91;4779894;29;20055;-72
2022/08/08 08:20:20;;;;;;;5.72;2.40;;;;;;;24.01;50.12;102738.00;4786275;29;19929;-73
2022/08/08 08:22:56;;;;;;;2.70;2.30;;;;;;;23.92;49.70;102732.78;4770957;29;20064;-73
2022/08/08 08:25:24;;;;;;;4.15;2.20;;;;;;;24.09;49.89;102733.59;4770427;29;20121;-73
2022/08/08 08:28:12;;;;;;;8.18;2.10;;;;;;;24.21;48.40;102737.13;4801049;29;20076;-74
2022/08/08 08:30:52;;;;;;;4.10;2.58;;;;;;;24.21;48.99;102742.56;4801117;29;20055;-74
2022/08/08 08:33:21;;;;;;;4.85;2.10;;;;;;;24.29;48.96;102745.63;4770777;29;20522;-74
2022/08/08 08:35:49;;;;;;;4.70;2.33;;;;;;;24.51;49.42;102749.16;4800253;29;20063;-73
2022/08/08 08:38:39;;;;;;;3.75;2.10;;;;;;;24.68;48.83;102746.50;4800490;29;20059;-73
2022/08/08 08:41:18;;;;;;;3.58;1.88;;;;;;;24.78;48.87;102742.34;4770274;29;20091;-76
2022/08/08 08:43:49;;;;;;;2.00;1.80;;;;;;;24.87;47.36;102747.53;4770988;29;20478;-75
2022/08/08 08:46:18;;;;;;;4.20;1.83;;;;;;;25.08;47.59;102750.84;4770813;29;20121;-75
2022/08/08 08:48:52;;;;;;;4.38;2.28;;;;;;;25.29;46.80;102745.88;4770628;29;20059;-74
2022/08/08 08:51:23;;;;;;;6.88;2.38;;;;;;;25.38;45.77;102755.81;4770660;29;20118;-76
2022/08/08 08:53:51;;;;;;;;;;;;;;;25.36;47.25;102761.00;4786154;29;20058;-76
2022/08/08 08:56:30;;;;;;;4.25;1.90;;;;;;;25.22;45.32;102747.13;4786949;29;20378;-76
2022/08/08 08:59:08;;;;;;;2.25;1.70;;;;;;;25.19;44.99;102748.09;4770530;29;20606;-75
2022/08/08 09:01:49;;;;;;;3.88;1.75;;;;;;;25.20;45.25;102762.47;4770888;29;20059;-76
2022/08/08 09:04:25;;;;;;;3.92;1.85;;;;;;;25.25;45.62;102767.19;4770154;29;20064;-75
2022/08/08 09:07:10;;;;;;;4.03;2.58;;;;;;;25.11;45.64;102758.03;4768929;29;20078;-72
2022/08/08 09:09:39;;;;;;;2.13;1.92;;;;;;;25.53;45.81;102757.06;4769136;29;20549;-73
2022/08/08 09:12:21;;;;;;;2.45;2.20;;;;;;;25.83;44.61;102760.00;4783435;29;20492;-72
2022/08/08 09:14:56;;;;;;;3.38;2.00;;;;;;;26.00;44.94;102764.69;4770039;29;20058;-72
2022/08/08 09:17:27;;;;;;;5.20;2.00;;;;;;;26.05;43.17;102751.03;4769996;29;20148;-73
2022/08/08 09:20:10;;;;;;;3.28;2.08;;;;;;;25.70;43.47;102753.56;4769850;29;20150;-72
2022/08/08 09:22:57;;;;;;;1.60;1.50;;;;;;;25.79;42.99;102750.59;4769812;29;20505;-73
2022/08/08 09:25:25;;;;;;;1.70;1.55;;;;;;;25.99;41.69;102755.03;4799766;29;20117;-73
2022/08/08 09:28:13;;;;;;;2.22;1.45;;;;;;;25.81;41.79;102748.13;4782393;29;20079;-72
2022/08/08 09:31:06;;;;;;;1.45;1.35;;;;;;;25.63;42.52;102748.59;4786653;29;20044;-73
2022/08/08 09:33:43;;;;;;;1.67;1.48;;;;;;;25.51;43.73;102754.06;4784984;29;20565;-71
2022/08/08 09:36:32;;;;;;;1.20;1.10;;;;;;;25.32;41.67;102755.06;4799664;29;20068;-73
2022/08/08 09:39:04;;;;;;;1.17;1.00;;;;;;;25.19;39.62;102744.66;4799527;29;20056;-72
2022/08/08 09:41:42;;;;;;;1.63;1.00;;;;;;;24.91;41.42;102753.50;4770049;29;20063;-72
2022/08/08 09:44:51;;;;;;;1.33;1.15;;;;;;;24.70;42.69;102749.50;4786447;29;20059;-72
2022/08/08 09:47:22;;;;;;;2.63;1.50;;;;;;;24.31;43.26;102756.75;4786702;29;20055;-73
2022/08/08 09:50:17;;;;;;;2.67;2.47;;;;;;;24.27;44.41;102752.28;4786335;29;20079;-73
2022/08/08 09:52:50;;;;;;;1.90;1.80;;;;;;;24.16;44.64;102751.47;4785911;29;20056;-72
2022/08/08 09:55:30;;;;;;;1.85;1.70;;;;;;;23.84;45.54;102754.25;4786252;29;20410;-71
2022/08/08 09:58:18;;;;;;;4.63;1.70;;;;;;;23.73;48.10;102761.56;4786526;29;20059;-73
2022/08/08 10:01:02;;;;;;;2.22;2.03;;;;;;;23.66;48.64;102762.75;4786208;29;20076;-72
2022/08/08 10:03:44;;;;;;;4.35;3.10;;;;;;;23.60;49.57;102768.13;4785597;29;20109;-73
2022/08/08 10:06:21;;;;;;;6.15;3.08;;;;;;;23.62;49.73;102770.38;4786193;29;20056;-73
2022/08/08 10:08:55;;;;;;;3.22;2.58;;;;;;;23.61;49.84;102774.31;4785663;29;20538;-73
2022/08/08 10:11:23;;;;;;;5.57;3.65;;;;;;;23.61;49.35;102772.34;4785963;29;20052;-74
2022/08/08 10:14:10;;;;;;;2.90;1.98;;;;;;;23.70;49.72;102776.13;4786207;29;20138;-73
2022/08/08 10:16:57;;;;;;;4.55;2.70;;;;;;;23.72;49.02;102773.66;4785720;29;20044;-74
2022/08/08 10:19:36;;;;;;;4.40;2.95;;;;;;;23.82;50.08;102769.56;4785457;29;20075;-74
2022/08/08 10:22:23;;;;;;;6.20;1.92;;;;;;;23.75;48.83;102770.00;4785317;29;20207;-74
2022/08/08 10:24:53;;;;;;;2.80;1.60;;;;;;;23.79;49.29;102768.53;4785750;29;20079;-73
2022/08/08 10:27:27;;;;;;;2.10;1.70;;;;;;;23.87;48.48;102768.84;4786513;29;20399;-73
2022/08/08 10:30:01;;;;;;;4.38;1.90;;;;;;;23.67;48.13;102761.53;4785896;29;20503;-74
2022/08/08 10:32:31;;;;;;;3.70;2.38;;;;;;;23.60;49.28;102773.56;4786853;29;20080;-73
2022/08/08 10:35:13;;;;;;;2.45;2.05;;;;;;;23.89;48.27;102767.13;4774866;29;20054;-73
2022/08/08 10:38:02;;;;;;;3.50;1.90;;;;;;;24.57;48.13;102776.41;4791919;29;20043;-73
2022/08/08 10:40:31;;;;;;;7.75;1.98;;;;;;;25.04;45.54;102769.41;4791892;29;20116;-73
2022/08/08 10:43:02;;;;;;;2.30;2.10;;;;;;;24.98;46.32;102765.91;4790459;29;20084;-73
2022/08/08 10:45:41;;;;;;;3.58;2.00;;;;;;;25.02;46.00;102768.41;4791785;29;20056;-73
2022/08/08 10:48:34;;;;;;;3.45;2.33;;;;;;;25.56;44.26;102764.25;4791598;29;20080;-75
2022/08/08 10:51:27;;;;;;;3.90;2.20;;;;;;;25.48;43.94;102749.63;4791252;29;20498;-74
2022/08/08 10:54:00;;;;;;;2.17;2.00;;;;;;;25.86;43.61;102759.03;4791785;29;20074;-74
2022/08/08 10:56:34;;;;;;;3.45;2.45;;;;;;;26.29;42.95;102760.63;4791496;29;20055;-73
2022/08/08 10:59:09;;;;;;;5.22;2.08;;;;;;;26.17;44.05;102755.22;4791089;29;20472;-73
2022/08/08 11:01:45;;;;;;;3.53;2.20;;;;;;;26.40;42.36;102747.69;4791603;29;20051;-72
2022/08/08 11:04:21;;;;;;;12.27;9.33;;;;;;;26.09;42.21;102761.69;4791784;29;20319;-72
2022/08/08 11:07:05;;;;;;;4.45;1.88;;;;;;;25.87;42.67;102751.56;4790176;29;20047;-72
2022/08/08 11:09:32;;;;;;;1.98;1.38;;;;;;;25.96;40.58;102748.59;4790941;29;20594;-72
2022/08/08 11:12:01;;;;;;;2.35;1.52;;;;;;;26.36;39.88;102741.78;4791155;29;20052;-73
2022/08/08 11:14:59;;;;;;;3.00;1.67;;;;;;;26.64;39.83;102738.16;4791239;29;20075;-73
2022/08/08 11:17:29;;;;;;;3.75;1.88;;;;;;;26.73;40.17;102735.88;4791578;29;20060;-73
2022/08/08 11:20:27;;;;;;;2.83;1.48;;;;;;;26.35;40.09;102734.84;4791193;29;20113;-73
2022/08/08 11:22:59;;;;;;;4.47;1.52;;;;;;;26.82;39.98;102743.00;4791174;29;20055;-74
2022/08/08 11:25:28;;;;;;;2.53;1.52;;;;;;;27.05;39.15;102744.38;4791253;29;20123;-73
2022/08/08 11:28:18;;;;;;;3.30;1.95;;;;;;;26.82;38.79;102732.81;4775036;29;20063;-74
2022/08/08 11:30:47;;;;;;;2.17;1.67;;;;;;;26.53;40.08;102731.50;4791304;29;20048;-73
2022/08/08 11:33:20;;;;;;;2.13;2.03;;;;;;;26.53;40.13;102728.03;4791601;29;20377;-74
2022/08/08 11:36:07;;;;;;;2.03;1.83;;;;;;;26.30;40.70;102719.19;4790694;29;20155;-74
2022/08/08 11:38:41;;;;;;;7.15;1.73;;;;;;;26.10;41.22;102731.16;4790735;29;20051;-73
2022/08/08 11:41:22;;;;;;;3.03;1.40;;;;;;;25.81;41.37;102721.56;4791313;29;20052;-74
2022/08/08 11:43:52;;;;;;;2.60;1.60;;;;;;;25.58;42.04;102726.31;4804560;29;20143;-74
2022/08/08 11:46:22;;;;;;;2.00;1.70;;;;;;;25.32;42.35;102731.25;4787010;29;20062;-73
2022/08/08 11:48:51;;;;;;;8.52;1.70;;;;;;;25.22;43.37;102730.00;4787971;29;20506;-73
2022/08/08 11:51:20;;;;;;;5.22;1.60;;;;;;;25.22;43.36;102728.03;4788196;29;20055;-72
2022/08/08 11:54:07;;;;;;;3.28;1.60;;;;;;;25.14;43.34;102723.59;4786681;29;20055;-72
2022/08/08 11:56:54;;;;;;;4.43;1.70;;;;;;;25.14;42.91;102727.06;4788002;29;20075;-73
2022/08/08 11:59:33;;;;;;;6.22;1.40;;;;;;;25.07;43.07;102726.81;4787027;29;20517;-73
2022/08/08 12:02:22;;;;;;;3.40;1.55;;;;;;;25.07;43.26;102724.06;4787940;29;20048;-73
2022/08/08 12:05:10;;;;;;;1.95;1.23;;;;;;;25.15;42.86;102723.09;4787234;29;20056;-72
2022/08/08 12:07:44;;;;;;;1.55;1.45;;;;;;;25.31;42.10;102718.88;4786458;29;20048;-73
2022/08/08 12:10:13;;;;;;;1.45;1.20;;;;;;;25.68;40.33;102717.88;4786349;29;20506;-73
2022/08/08 12:12:44;;;;;;;1.70;1.00;;;;;;;25.88;39.54;102715.63;4771253;29;20281;-75
2022/08/08 12:15:32;;;;;;;1.30;1.20;;;;;;;25.90;39.35;102715.13;4787356;29;20062;-74
2022/08/08 12:18:13;;;;;;;3.72;1.38;;;;;;;25.63;38.41;102715.88;4787163;29;20460;-72
2022/08/08 12:20:41;;;;;;;1.27;1.17;;;;;;;25.58;38.81;102715.41;4785941;29;20143;-73
2022/08/08 12:23:08;;;;;;;2.75;1.33;;;;;;;25.78;39.33;102708.19;4787461;29;20465;-72
2022/08/08 12:25:50;;;;;;;0.90;0.90;;;;;;;25.85;36.90;102708.44;4787725;29;20055;-73
2022/08/08 12:28:22;;;;;;;1.60;1.33;;;;;;;25.98;38.21;102702.44;4787278;29;20219;-72
2022/08/08 12:30:48;;;;;;;1.38;1.27;;;;;;;25.89;38.28;102700.72;4787337;29;20048;-72
2022/08/08 12:33:19;;;;;;;5.15;1.27;;;;;;;25.92;38.58;102701.72;4787234;29;20052;-72
2022/08/08 12:35:47;;;;;;;0.95;0.95;;;;;;;25.64;38.89;102712.66;4786142;29;20056;-72
2022/08/08 12:38:19;;;;;;;1.98;1.40;;;;;;;25.49;39.89;102712.19;4787461;29;20075;-72
2022/08/08 12:40:56;;;;;;;1.35;1.00;;;;;;;25.31;40.82;102710.69;4787265;29;20409;-72
2022/08/08 12:43:34;;;;;;;4.43;1.33;;;;;;;25.17;40.38;102709.72;4787222;29;20587;-72
2022/08/08 12:46:21;;;;;;;1.73;1.20;;;;;;;24.98;41.33;102703.25;4786641;29;20149;-72
2022/08/08 12:48:55;;;;;;;3.55;1.48;;;;;;;24.85;42.16;102706.44;4787059;29;20052;-72